Time;durP1;ratioP1;P1;durP2;ratioP2;P2;SDS_P1;SDS_P2;PMS_P1;PMS_P2;Temp;Humidity;BMP_temperature;BMP_pressure;BME280_temperature;BME280_humidity;BME280_pressure;Samples;Min_cycle;Max_cycle;Signal;HPM_P1;HPM_P2
2022/04/05 00:01:34;;;;;;;34.80;21.40;;;3.90;99.90;;;;;;4999088;28;20019;-72
2022/04/05 00:04:02;;;;;;;35.08;22.83;;;4.00;99.90;;;;;;5008124;28;20120;-71
2022/04/05 00:06:28;;;;;;;34.42;23.02;;;4.00;99.90;;;;;;5025961;28;20033;-72
2022/04/05 00:08:54;;;;;;;32.58;20.05;;;4.00;99.90;;;;;;4997158;28;20440;-74
2022/04/05 00:11:20;;;;;;;32.17;21.58;;;4.00;99.90;;;;;;5002236;28;20116;-70
2022/04/05 00:13:46;;;;;;;38.67;24.23;;;4.00;99.90;;;;;;5000837;28;20033;-70
2022/04/05 00:16:12;;;;;;;40.05;23.42;;;4.00;99.90;;;;;;5003441;28;20109;-72
2022/04/05 00:18:41;;;;;;;33.60;21.85;;;4.00;99.90;;;;;;4998214;28;20125;-71
2022/04/05 00:21:07;;;;;;;40.35;24.17;;;3.90;99.90;;;;;;4979514;28;20031;-70
2022/04/05 00:23:34;;;;;;;38.33;23.65;;;3.90;99.90;;;;;;5010053;28;20025;-72
2022/04/05 00:26:00;;;;;;;48.75;33.30;;;3.90;99.90;;;;;;5000402;28;20482;-73
2022/04/05 00:28:26;;;;;;;49.72;31.52;;;3.90;99.90;;;;;;5011640;28;20030;-73
2022/04/05 00:30:56;;;;;;;62.15;41.88;;;3.80;99.90;;;;;;5009343;28;20034;-74
2022/04/05 00:33:22;;;;;;;46.72;30.52;;;3.80;99.90;;;;;;5002117;28;20366;-75
2022/04/05 00:35:51;;;;;;;43.53;28.08;;;3.70;99.90;;;;;;5008028;28;20034;-74
2022/04/05 00:38:20;;;;;;;41.97;26.67;;;3.70;99.90;;;;;;5010355;28;20120;-75
2022/04/05 00:40:46;;;;;;;71.10;41.63;;;3.70;99.90;;;;;;5013430;28;20034;-73
2022/04/05 00:43:15;;;;;;;88.93;56.92;;;3.60;99.90;;;;;;5008457;28;20416;-68
2022/04/05 00:45:41;;;;;;;90.43;49.15;;;3.50;99.90;;;;;;5000571;28;20524;-69
2022/04/05 00:48:11;;;;;;;80.80;48.85;;;3.50;99.90;;;;;;5005998;28;20097;-73
2022/04/05 00:50:39;;;;;;;73.30;44.65;;;3.40;99.90;;;;;;4995934;28;20041;-73
2022/04/05 00:53:07;;;;;;;84.85;45.95;;;3.40;99.90;;;;;;5013209;28;20026;-69
2022/04/05 00:55:35;;;;;;;60.88;36.28;;;3.40;99.90;;;;;;5014843;28;20117;-73
2022/04/05 00:58:02;;;;;;;37.30;25.13;;;3.40;99.90;;;;;;4994275;28;20487;-73
2022/04/05 01:00:34;;;;;;;74.30;43.65;;;3.30;99.90;;;;;;4995451;28;20499;-74
2022/04/05 01:03:03;;;;;;;76.72;43.45;;;3.30;99.90;;;;;;5010101;28;20038;-73
2022/04/05 01:05:29;;;;;;;77.25;43.67;;;3.30;99.90;;;;;;4993520;28;20037;-73
2022/04/05 01:08:02;;;;;;;89.15;48.90;;;3.30;99.90;;;;;;5003378;28;20029;-72
2022/04/05 01:13:32;;;;;;;56.50;35.72;;;3.30;99.90;;;;;;5007394;28;20109;-74
2022/04/05 01:15:58;;;;;;;54.28;35.90;;;3.20;99.90;;;;;;5010882;28;20048;-72
2022/04/05 01:18:24;;;;;;;61.20;36.88;;;3.30;99.90;;;;;;5011574;28;20674;-73
2022/04/05 01:20:51;;;;;;;55.45;34.97;;;3.30;99.90;;;;;;5013056;28;20105;-73
2022/04/05 01:23:21;;;;;;;55.28;35.53;;;3.30;99.90;;;;;;5012888;28;20029;-72
2022/04/05 01:25:57;;;;;;;53.83;33.50;;;3.30;99.90;;;;;;5012951;28;20030;-73
2022/04/05 01:28:24;;;;;;;50.53;34.47;;;3.30;99.90;;;;;;5010320;28;20025;-72
2022/04/05 01:30:52;;;;;;;49.55;34.17;;;3.30;99.90;;;;;;4991164;28;20030;-69
2022/04/05 01:33:19;;;;;;;51.40;32.70;;;3.30;99.90;;;;;;5018007;28;20065;-73
2022/04/05 01:35:46;;;;;;;54.38;32.53;;;3.30;99.90;;;;;;5012689;28;20160;-73
2022/04/05 01:38:13;;;;;;;46.78;31.17;;;3.30;99.90;;;;;;5009756;28;20119;-69
2022/04/05 01:40:39;;;;;;;52.97;32.97;;;3.20;99.90;;;;;;5005702;28;20037;-72
2022/04/05 01:43:08;;;;;;;51.03;32.03;;;3.20;99.90;;;;;;5011268;28;20152;-73
2022/04/05 01:45:35;;;;;;;47.42;30.65;;;3.20;99.90;;;;;;5012456;28;20725;-73
2022/04/05 01:48:03;;;;;;;47.00;32.20;;;3.10;99.90;;;;;;5012388;28;20069;-75
2022/04/05 01:50:31;;;;;;;54.25;33.63;;;3.10;99.90;;;;;;5010777;28;20108;-74
2022/04/05 01:52:59;;;;;;;57.58;34.85;;;3.10;99.90;;;;;;5012755;28;20057;-73
2022/04/05 01:55:25;;;;;;;50.38;32.17;;;3.10;99.90;;;;;;5012909;28;20113;-73
2022/04/05 01:57:51;;;;;;;53.53;35.33;;;3.10;99.90;;;;;;5028815;28;20042;-71
2022/04/05 02:00:17;;;;;;;55.90;36.30;;;3.10;99.90;;;;;;4995685;28;20031;-71
2022/04/05 02:02:44;;;;;;;52.72;35.75;;;3.10;99.90;;;;;;5009071;28;20026;-70
2022/04/05 02:05:13;;;;;;;49.78;31.15;;;3.10;99.90;;;;;;5006680;28;20061;-72
2022/04/05 02:07:39;;;;;;;46.33;31.25;;;3.00;99.90;;;;;;5004565;28;20023;-73
2022/04/05 02:10:06;;;;;;;47.90;31.17;;;3.00;99.90;;;;;;4976965;28;20590;-74
2022/04/05 02:12:33;;;;;;;49.38;31.55;;;3.00;99.90;;;;;;5003278;28;20101;-73
2022/04/05 02:15:13;;;;;;;46.75;29.75;;;3.00;99.90;;;;;;5012951;28;20121;-71
2022/04/05 02:17:57;;;;;;;43.53;28.02;;;2.90;99.90;;;;;;5011814;28;20042;-71
2022/04/05 02:20:27;;;;;;;40.55;27.33;;;2.90;99.90;;;;;;5011671;28;20029;-70
2022/04/05 02:22:53;;;;;;;40.72;26.85;;;2.90;99.90;;;;;;4995623;28;20030;-72
2022/04/05 02:25:26;;;;;;;41.30;27.45;;;2.80;99.90;;;;;;4995613;28;20026;-68
2022/04/05 02:27:56;;;;;;;39.70;26.80;;;2.80;99.90;;;;;;4993443;28;20033;-71
2022/04/05 02:30:29;;;;;;;41.13;27.15;;;2.80;99.90;;;;;;4989745;28;20184;-72
2022/04/05 02:33:03;;;;;;;45.85;28.50;;;2.70;99.90;;;;;;5010463;28;20022;-73
2022/04/05 02:35:37;;;;;;;39.45;28.25;;;2.60;99.90;;;;;;5007476;28;20104;-72
2022/04/05 02:38:08;;;;;;;41.90;28.08;;;2.50;99.90;;;;;;5007003;28;20050;-73
2022/04/05 02:40:46;;;;;;;;;;;2.40;99.90;;;;;;5006476;28;20072;-71
2022/04/05 02:43:16;;;;;;;41.63;27.73;;;2.40;99.90;;;;;;4990844;28;19956;-73
2022/04/05 02:45:45;;;;;;;54.80;33.38;;;2.40;99.90;;;;;;5006971;28;20037;-70
2022/04/05 02:48:13;;;;;;;51.72;32.20;;;2.40;99.90;;;;;;4960127;28;20130;-72
2022/04/05 02:50:41;;;;;;;43.78;31.05;;;2.40;99.90;;;;;;5011927;28;20030;-71
2022/04/05 02:53:11;;;;;;;46.97;30.92;;;2.40;99.90;;;;;;5026558;28;20472;-74
2022/04/05 02:55:38;;;;;;;56.20;33.13;;;2.40;99.90;;;;;;4993150;28;20042;-72
2022/04/05 02:58:04;;;;;;;46.92;31.70;;;2.50;99.90;;;;;;5010770;28;20026;-73
2022/04/05 03:00:37;;;;;;;42.38;27.52;;;2.40;99.90;;;;;;5010378;28;20026;-74
2022/04/05 03:03:11;;;;;;;47.28;28.77;;;2.40;99.90;;;;;;5011164;28;20030;-74
2022/04/05 03:05:44;;;;;;;50.40;31.15;;;2.40;99.90;;;;;;5011700;28;20042;-69
2022/04/05 03:08:13;;;;;;;40.85;26.15;;;2.30;99.90;;;;;;5026799;28;20030;-73
2022/04/05 03:10:43;;;;;;;42.08;28.88;;;2.30;99.90;;;;;;5028704;28;20173;-74
2022/04/05 03:13:13;;;;;;;44.35;30.25;;;2.30;99.90;;;;;;5027010;28;20037;-72
2022/04/05 03:15:40;;;;;;;39.25;27.00;;;2.20;99.90;;;;;;5027377;28;20939;-74
2022/04/05 03:18:07;;;;;;;50.13;31.10;;;2.10;99.90;;;;;;5010618;28;20034;-69
2022/04/05 03:20:33;;;;;;;49.10;30.95;;;2.10;99.90;;;;;;5025862;28;20553;-73
2022/04/05 03:23:00;;;;;;;47.22;30.05;;;2.10;99.90;;;;;;5009034;28;20036;-74
2022/04/05 03:25:27;;;;;;;48.78;30.63;;;2.10;99.90;;;;;;5011339;28;20101;-73
2022/04/05 03:28:04;;;;;;;47.63;30.23;;;2.10;99.90;;;;;;4994202;28;20522;-73
2022/04/05 03:30:32;;;;;;;46.38;30.75;;;2.10;99.90;;;;;;5003917;28;20041;-73
2022/04/05 03:33:00;;;;;;;53.22;31.40;;;2.00;99.90;;;;;;5008371;28;20502;-72
2022/04/05 03:35:26;;;;;;;45.88;30.30;;;2.00;99.90;;;;;;5024782;28;20030;-71
2022/04/05 03:37:57;;;;;;;45.10;29.00;;;2.00;99.90;;;;;;5010075;28;20042;-71
2022/04/05 03:40:24;;;;;;;43.63;32.03;;;2.00;99.90;;;;;;5010209;28;20084;-70
2022/04/05 03:42:51;;;;;;;50.50;30.58;;;2.00;99.90;;;;;;5010510;28;20068;-73
2022/04/05 03:45:18;;;;;;;48.53;30.50;;;2.00;99.90;;;;;;5011305;28;20029;-72
2022/04/05 03:47:44;;;;;;;50.30;30.85;;;2.00;99.90;;;;;;5004041;28;20054;-73
2022/04/05 03:50:13;;;;;;;48.05;29.30;;;2.10;99.90;;;;;;4974331;28;20096;-73
2022/04/05 03:52:42;;;;;;;54.10;31.35;;;2.10;99.90;;;;;;4990460;28;20121;-72
2022/04/05 03:55:11;;;;;;;53.25;30.80;;;2.00;99.90;;;;;;4990441;28;20026;-74
2022/04/05 03:57:45;;;;;;;50.97;31.80;;;2.00;99.90;;;;;;5000140;28;20033;-73
2022/04/05 04:00:14;;;;;;;71.68;43.78;;;2.00;99.90;;;;;;5024116;28;20025;-70
2022/04/05 04:02:43;;;;;;;77.63;48.83;;;2.00;99.90;;;;;;5025942;28;20388;-73
2022/04/05 04:05:17;;;;;;;80.18;50.50;;;2.00;99.90;;;;;;5009755;28;20487;-72
2022/04/05 04:07:45;;;;;;;;;;;1.90;99.90;;;;;;5009998;28;20076;-73
2022/04/05 04:10:13;;;;;;;79.88;52.35;;;2.00;99.90;;;;;;5009664;28;19913;-73
2022/04/05 04:12:51;;;;;;;73.47;48.78;;;2.00;99.90;;;;;;4992757;28;20057;-73
2022/04/05 04:15:28;;;;;;;94.10;60.88;;;2.00;99.90;;;;;;5003341;28;20416;-73
2022/04/05 04:17:57;;;;;;;69.68;42.78;;;2.10;99.90;;;;;;5002100;28;20518;-72
2022/04/05 04:20:24;;;;;;;65.93;39.92;;;2.10;99.90;;;;;;4986410;28;20042;-72
2022/04/05 04:22:54;;;;;;;57.42;38.65;;;2.20;99.90;;;;;;5007182;28;20025;-73
2022/04/05 04:25:24;;;;;;;65.05;44.15;;;2.20;99.90;;;;;;5007972;28;20048;-74
2022/04/05 04:27:52;;;;;;;95.20;56.40;;;2.40;99.90;;;;;;5008952;28;20361;-69
2022/04/05 04:30:18;;;;;;;158.32;88.18;;;2.70;99.90;;;;;;5008976;28;20504;-73
2022/04/05 04:32:44;;;;;;;118.35;69.50;;;2.70;99.90;;;;;;5024855;28;21017;-73
2022/04/05 04:35:10;;;;;;;108.15;69.20;;;3.30;99.90;;;;;;5012516;28;20038;-74
2022/04/05 04:37:44;;;;;;;80.22;48.13;;;3.90;99.90;;;;;;4973984;28;20062;-72
2022/04/05 04:40:16;;;;;;;78.50;46.63;;;4.60;99.90;;;;;;5008045;28;20105;-73
2022/04/05 04:42:42;;;;;;;85.40;51.78;;;5.50;99.90;;;;;;5025455;28;20144;-73
2022/04/05 04:45:21;;;;;;;73.43;45.53;;;5.70;99.90;;;;;;5010426;28;20462;-72
2022/04/05 04:47:47;;;;;;;66.07;40.53;;;6.00;99.90;;;;;;5011196;28;20555;-72
2022/04/05 04:50:13;;;;;;;84.88;47.88;;;7.10;99.90;;;;;;5010667;28;20112;-72
2022/04/05 04:52:44;;;;;;;51.92;34.50;;;7.40;99.10;;;;;;5010850;28;20053;-72
2022/04/05 04:55:10;;;;;;;64.75;41.90;;;7.70;96.90;;;;;;5010724;28;20421;-72
2022/04/05 04:57:52;;;;;;;60.80;36.67;;;8.40;94.60;;;;;;5010662;28;20116;-73
2022/04/05 05:00:18;;;;;;;89.95;59.97;;;8.60;93.30;;;;;;5025949;28;20030;-72
2022/04/05 05:02:53;;;;;;;88.28;58.17;;;9.10;92.00;;;;;;5009900;28;20072;-71
2022/04/05 05:05:20;;;;;;;79.65;52.28;;;9.50;89.60;;;;;;5024594;28;20038;-72
2022/04/05 05:07:51;;;;;;;75.10;54.60;;;9.50;87.90;;;;;;5012860;28;20048;-72
2022/04/05 05:10:21;;;;;;;83.38;50.05;;;10.40;86.40;;;;;;5026868;28;20084;-71
2022/04/05 05:12:47;;;;;;;98.35;64.38;;;10.40;82.60;;;;;;5025008;28;20092;-72
2022/04/05 05:15:17;;;;;;;130.02;83.20;;;10.80;82.90;;;;;;5027079;28;20374;-72
2022/04/05 05:17:47;;;;;;;80.90;52.17;;;10.90;80.70;;;;;;5009893;28;20033;-72
2022/04/05 05:20:16;;;;;;;70.43;49.00;;;11.00;80.40;;;;;;5010040;28;20034;-71
2022/04/05 05:22:43;;;;;;;81.18;52.17;;;11.60;80.20;;;;;;5024467;28;20340;-72
2022/04/05 05:25:10;;;;;;;61.53;42.67;;;11.90;79.50;;;;;;5013387;28;20037;-71
2022/04/05 05:27:49;;;;;;;71.15;42.80;;;10.80;78.20;;;;;;5011470;28;20041;-72
2022/04/05 05:30:18;;;;;;;51.25;32.85;;;9.80;83.50;;;;;;5028709;28;20038;-72
2022/04/05 05:32:49;;;;;;;65.22;41.67;;;9.50;87.00;;;;;;4996612;28;20033;-71
2022/04/05 05:35:21;;;;;;;61.17;38.30;;;9.10;89.80;;;;;;5037606;28;20029;-71
2022/04/05 05:37:49;;;;;;;59.78;38.03;;;8.70;91.90;;;;;;5013943;28;20045;-70
2022/04/05 05:40:16;;;;;;;53.90;35.08;;;8.30;93.20;;;;;;5013843;28;20732;-70
2022/04/05 05:43:04;;;;;;;54.97;32.92;;;7.90;96.10;;;;;;5013627;28;20084;-66
2022/04/05 05:45:35;;;;;;;44.25;30.50;;;7.60;97.70;;;;;;5012317;28;20032;-71
2022/04/05 05:48:11;;;;;;;55.25;28.65;;;7.60;99.90;;;;;;5015234;28;20041;-69
2022/04/05 05:50:37;;;;;;;51.08;28.40;;;7.50;99.90;;;;;;5029165;28;20364;-71
2022/04/05 05:53:04;;;;;;;40.60;27.70;;;7.30;98.30;;;;;;5013509;28;20029;-71
2022/04/05 05:55:31;;;;;;;44.47;28.13;;;7.60;99.70;;;;;;5013672;28;20036;-71
2022/04/05 05:57:57;;;;;;;39.72;27.15;;;7.60;98.00;;;;;;5011489;28;20088;-70
2022/04/05 06:00:23;;;;;;;40.78;26.50;;;7.80;97.60;;;;;;5008693;28;20014;-72
2022/04/05 06:03:00;;;;;;;37.33;25.88;;;7.90;99.90;;;;;;5010968;28;20029;-72
2022/04/05 06:05:30;;;;;;;45.92;26.42;;;7.90;98.40;;;;;;5026766;28;20030;-73
2022/04/05 06:07:59;;;;;;;34.58;23.33;;;8.30;99.90;;;;;;5010791;28;20496;-71
2022/04/05 06:10:25;;;;;;;35.25;24.95;;;8.40;95.60;;;;;;5028659;28;20053;-72
2022/04/05 06:12:55;;;;;;;36.75;21.27;;;8.10;94.80;;;;;;5012031;28;20026;-71
2022/04/05 06:15:25;;;;;;;29.05;19.60;;;8.40;95.30;;;;;;5028245;28;20030;-71
2022/04/05 06:17:52;;;;;;;29.75;19.38;;;8.50;94.60;;;;;;5013957;28;20037;-72
2022/04/05 06:20:20;;;;;;;27.90;17.65;;;8.60;93.00;;;;;;5012573;28;20100;-72
2022/04/05 06:22:53;;;;;;;28.30;17.55;;;8.60;92.60;;;;;;5011297;28;20036;-72
2022/04/05 06:25:27;;;;;;;28.88;18.33;;;8.70;92.20;;;;;;4996614;28;20152;-69
2022/04/05 06:27:54;;;;;;;28.70;18.33;;;8.70;92.70;;;;;;5012857;28;20026;-72
2022/04/05 06:30:32;;;;;;;28.40;17.27;;;8.60;93.40;;;;;;5013052;28;20018;-72
2022/04/05 06:33:20;;;;;;;41.17;19.67;;;8.50;94.30;;;;;;5030971;28;20022;-70
2022/04/05 06:35:48;;;;;;;26.70;16.65;;;8.70;95.70;;;;;;5013122;28;20022;-71
2022/04/05 06:38:18;;;;;;;25.23;17.67;;;8.80;96.80;;;;;;5013676;28;20037;-70
2022/04/05 06:40:44;;;;;;;29.63;17.48;;;8.70;96.90;;;;;;5028522;28;20132;-71
2022/04/05 06:43:11;;;;;;;27.67;17.08;;;9.00;94.60;;;;;;5013654;28;20025;-73
2022/04/05 06:45:37;;;;;;;29.38;17.08;;;9.20;93.10;;;;;;5027555;28;20026;-72
2022/04/05 06:48:06;;;;;;;28.02;17.20;;;9.40;92.20;;;;;;5001847;28;20563;-71
2022/04/05 06:50:33;;;;;;;27.15;17.25;;;9.30;92.80;;;;;;5011375;28;20041;-70
2022/04/05 06:53:00;;;;;;;26.67;17.52;;;9.40;95.20;;;;;;5028428;28;20026;-72
2022/04/05 06:55:27;;;;;;;31.45;19.67;;;9.70;94.30;;;;;;5013305;28;20057;-72
2022/04/05 06:57:54;;;;;;;32.65;18.60;;;9.80;91.80;;;;;;5028428;28;20132;-71
2022/04/05 07:00:22;;;;;;;33.42;19.48;;;9.80;92.40;;;;;;5029617;28;20427;-71
2022/04/05 07:02:49;;;;;;;30.25;19.17;;;10.10;92.50;;;;;;5012043;28;20069;-72
2022/04/05 07:05:16;;;;;;;26.48;17.17;;;10.40;91.60;;;;;;4989427;28;20049;-71
2022/04/05 07:07:44;;;;;;;25.85;16.30;;;10.60;92.50;;;;;;5011593;28;20056;-71
2022/04/05 07:10:14;;;;;;;29.55;17.75;;;10.60;91.20;;;;;;4993847;28;20056;-71
2022/04/05 07:12:42;;;;;;;24.35;16.75;;;10.70;90.60;;;;;;4993559;28;20423;-72
2022/04/05 07:15:10;;;;;;;24.17;16.58;;;11.00;90.60;;;;;;5011533;28;20026;-71
2022/04/05 07:17:37;;;;;;;23.52;15.75;;;11.10;87.30;;;;;;5009144;28;20042;-72
2022/04/05 07:20:04;;;;;;;24.02;15.55;;;11.10;90.80;;;;;;5010968;28;20030;-72
2022/04/05 07:22:30;;;;;;;22.05;16.13;;;11.40;86.30;;;;;;5010691;28;20357;-71
2022/04/05 07:25:01;;;;;;;26.40;15.30;;;11.20;90.00;;;;;;5011222;28;20101;-72
2022/04/05 07:27:30;;;;;;;30.08;14.85;;;11.20;85.70;;;;;;5011436;28;20415;-71
2022/04/05 07:29:56;;;;;;;24.88;14.20;;;11.20;87.20;;;;;;5009877;28;20491;-71
2022/04/05 07:32:21;;;;;;;27.35;15.57;;;11.60;90.40;;;;;;5011202;28;20033;-71
2022/04/05 07:34:47;;;;;;;19.08;12.98;;;11.80;91.30;;;;;;5011173;28;20038;-71
2022/04/05 07:37:13;;;;;;;20.83;13.95;;;11.90;88.70;;;;;;5012481;28;20095;-75
2022/04/05 07:39:40;;;;;;;21.38;13.10;;;12.20;84.50;;;;;;5012116;28;20161;-72
2022/04/05 07:42:12;;;;;;;20.15;11.80;;;12.40;86.70;;;;;;5012399;28;20030;-72
2022/04/05 07:44:41;;;;;;;18.13;8.98;;;12.50;88.30;;;;;;4994796;28;20033;-71
2022/04/05 07:47:09;;;;;;;18.42;10.63;;;12.70;85.90;;;;;;5010936;28;20057;-72
2022/04/05 07:49:35;;;;;;;16.95;8.98;;;12.80;85.10;;;;;;4993301;28;20069;-72
2022/04/05 07:52:02;;;;;;;17.02;9.15;;;12.80;81.90;;;;;;5011352;28;20041;-73
2022/04/05 07:54:28;;;;;;;19.83;8.95;;;13.00;80.40;;;;;;5011848;28;20475;-73
2022/04/05 07:56:53;;;;;;;14.57;8.48;;;13.10;81.70;;;;;;5011770;28;20084;-73
2022/04/05 07:59:19;;;;;;;13.52;7.55;;;13.10;78.60;;;;;;5011934;28;20104;-73
2022/04/05 08:01:49;;;;;;;14.27;7.40;;;13.30;80.70;;;;;;5011660;28;20080;-71
2022/04/05 08:04:15;;;;;;;15.25;6.75;;;13.20;77.40;;;;;;5012067;28;20057;-71
2022/04/05 08:06:43;;;;;;;12.40;6.22;;;13.40;76.60;;;;;;5011446;28;20054;-73
2022/04/05 08:09:10;;;;;;;9.98;6.13;;;13.20;74.60;;;;;;5011106;28;20045;-73
2022/04/05 08:11:38;;;;;;;16.08;6.85;;;13.20;76.90;;;;;;5015240;28;20026;-74
2022/04/05 08:14:05;;;;;;;13.35;6.90;;;12.90;74.30;;;;;;5010698;28;20036;-74
2022/04/05 08:16:31;;;;;;;12.23;7.03;;;13.10;74.50;;;;;;5010377;28;20033;-72
2022/04/05 08:18:56;;;;;;;12.77;6.63;;;13.00;74.50;;;;;;5012134;28;20056;-72
2022/04/05 08:21:23;;;;;;;12.88;6.85;;;13.30;77.80;;;;;;5011543;28;20018;-73
2022/04/05 08:23:50;;;;;;;12.05;6.68;;;13.40;74.80;;;;;;5027155;28;20032;-72
2022/04/05 08:26:16;;;;;;;11.23;6.35;;;13.80;75.80;;;;;;5011488;28;20073;-70
2022/04/05 08:28:46;;;;;;;15.23;6.72;;;14.00;73.00;;;;;;5011828;28;20439;-73
2022/04/05 08:31:11;;;;;;;20.83;6.55;;;14.00;75.40;;;;;;5027065;28;20029;-73
2022/04/05 08:33:38;;;;;;;10.95;5.05;;;14.20;73.60;;;;;;5011657;28;20034;-72
2022/04/05 08:36:04;;;;;;;9.65;5.85;;;14.20;72.50;;;;;;5011414;28;20037;-73
2022/04/05 08:38:33;;;;;;;10.07;4.80;;;14.50;71.90;;;;;;5010778;28;20030;-73
2022/04/05 08:41:04;;;;;;;9.63;4.00;;;14.60;72.40;;;;;;5026034;28;20069;-72
2022/04/05 08:43:30;;;;;;;5.65;3.47;;;14.60;67.40;;;;;;5025378;28;20033;-66
2022/04/05 08:46:01;;;;;;;4.47;2.15;;;14.60;70.50;;;;;;5008704;28;20034;-72
2022/04/05 08:48:29;;;;;;;4.13;2.17;;;14.70;64.40;;;;;;5009910;28;20045;-73
2022/04/05 08:50:56;;;;;;;6.70;2.97;;;14.60;68.20;;;;;;5011393;28;20271;-73
2022/04/05 08:53:23;;;;;;;4.57;2.28;;;14.80;68.30;;;;;;5011872;28;20046;-73
2022/04/05 08:55:49;;;;;;;4.57;2.10;;;14.90;63.10;;;;;;5012158;28;20053;-73
2022/04/05 08:58:23;;;;;;;6.28;2.20;;;15.20;65.60;;;;;;5012397;28;20072;-73
2022/04/05 09:00:54;;;;;;;3.10;2.00;;;15.10;63.90;;;;;;5014911;28;20467;-73
2022/04/05 09:03:20;;;;;;;3.72;1.90;;;15.20;61.50;;;;;;5030057;28;20134;-72
2022/04/05 09:05:50;;;;;;;3.95;2.15;;;15.40;65.50;;;;;;5014713;28;20192;-73
2022/04/05 09:08:28;;;;;;;2.00;1.50;;;15.40;60.80;;;;;;5029631;28;20040;-71
2022/04/05 09:11:20;;;;;;;3.80;1.80;;;15.20;64.20;;;;;;5013700;28;20165;-70
2022/04/05 09:14:05;;;;;;;4.72;1.90;;;15.10;63.20;;;;;;5012668;28;20040;-73
2022/04/05 09:16:39;;;;;;;2.03;1.52;;;15.00;61.40;;;;;;5028867;28;20041;-71
2022/04/05 09:19:15;;;;;;;3.45;1.58;;;15.10;62.40;;;;;;5014414;28;20038;-72
2022/04/05 09:21:54;;;;;;;3.42;1.98;;;15.10;61.90;;;;;;5014067;28;20156;-72
2022/04/05 09:24:20;;;;;;;2.20;1.60;;;14.90;63.10;;;;;;5014794;28;20034;-72
2022/04/05 09:26:50;;;;;;;3.70;1.88;;;15.00;61.80;;;;;;5014878;28;20061;-73
2022/04/05 09:29:18;;;;;;;4.45;1.92;;;14.40;60.30;;;;;;5029671;28;20079;-73
2022/04/05 09:31:48;;;;;;;2.33;1.63;;;14.70;61.60;;;;;;5014210;28;20486;-73
2022/04/05 09:34:19;;;;;;;2.70;1.90;;;14.90;62.90;;;;;;5012943;28;20030;-73
2022/04/05 09:36:51;;;;;;;2.58;1.80;;;15.20;62.30;;;;;;5014472;28;20061;-71
2022/04/05 09:39:17;;;;;;;4.88;1.95;;;15.10;62.80;;;;;;5015159;28;20030;-73
2022/04/05 09:41:48;;;;;;;2.45;1.40;;;15.30;60.30;;;;;;5013899;28;20274;-73
2022/04/05 09:44:25;;;;;;;3.05;1.95;;;15.20;59.30;;;;;;5014379;28;20384;-74
2022/04/05 09:47:10;;;;;;;2.92;1.75;;;15.10;62.60;;;;;;5026537;28;20057;-73
2022/04/05 09:49:48;;;;;;;4.07;1.70;;;15.40;61.30;;;;;;5009568;28;20037;-72
2022/04/05 09:52:22;;;;;;;3.22;1.83;;;15.40;62.50;;;;;;5012506;28;20105;-72
2022/04/05 09:54:53;;;;;;;3.03;1.65;;;15.50;61.40;;;;;;5011252;28;20040;-73
2022/04/05 09:57:32;;;;;;;3.72;2.15;;;15.30;58.70;;;;;;4994650;28;20487;-72
2022/04/05 10:00:17;;;;;;;4.75;2.05;;;15.50;62.30;;;;;;5011037;28;20109;-74
2022/04/05 10:03:04;;;;;;;2.30;1.65;;;15.80;61.40;;;;;;5009624;28;20038;-73
2022/04/05 10:05:35;;;;;;;3.20;1.65;;;15.50;59.40;;;;;;5010890;28;20022;-73
2022/04/05 10:08:05;;;;;;;2.97;2.08;;;15.70;60.80;;;;;;5012201;28;20711;-73
2022/04/05 10:10:33;;;;;;;5.88;2.28;;;16.10;63.20;;;;;;5010948;28;20034;-75
2022/04/05 10:12:59;;;;;;;2.95;1.77;;;16.20;61.70;;;;;;5031172;28;20028;-73
2022/04/05 10:15:28;;;;;;;4.28;1.92;;;16.20;60.40;;;;;;5011838;28;20434;-73
2022/04/05 10:17:54;;;;;;;6.40;2.55;;;16.00;60.10;;;;;;5026612;28;20045;-74
2022/04/05 10:20:22;;;;;;;4.82;2.08;;;15.80;61.00;;;;;;5012900;28;20421;-74
2022/04/05 10:22:53;;;;;;;5.47;2.55;;;16.10;61.50;;;;;;5013424;28;20367;-73
2022/04/05 10:25:21;;;;;;;7.53;3.22;;;16.10;62.20;;;;;;5028715;28;20579;-73
2022/04/05 10:27:47;;;;;;;6.85;2.70;;;16.10;61.10;;;;;;5011712;28;20030;-73
2022/04/05 10:30:33;;;;;;;8.73;2.95;;;16.10;60.60;;;;;;5011587;28;20021;-74
2022/04/05 10:33:03;;;;;;;4.63;2.30;;;16.40;63.50;;;;;;5012096;28;20049;-73
2022/04/05 10:35:41;;;;;;;3.42;2.30;;;16.60;62.60;;;;;;5013366;28;20028;-75
2022/04/05 10:38:21;;;;;;;4.43;2.10;;;16.20;61.90;;;;;;5011835;28;20038;-73
2022/04/05 10:41:20;;;;;;;4.80;2.13;;;16.20;58.70;;;;;;5012009;28;20487;-74
2022/04/05 10:44:07;;;;;;;4.82;2.03;;;16.10;62.30;;;;;;5008122;28;20572;-72
2022/04/05 10:46:41;;;;;;;3.40;1.88;;;16.20;61.00;;;;;;5004485;28;20041;-73
2022/04/05 10:49:08;;;;;;;6.30;2.10;;;16.30;60.60;;;;;;5003116;28;20068;-73
2022/04/05 10:52:05;;;;;;;7.30;2.25;;;16.00;57.40;;;;;;4994636;28;20396;-73
2022/04/05 10:54:40;;;;;;;3.38;2.17;;;16.10;62.00;;;;;;5008244;28;20042;-73
2022/04/05 10:57:26;;;;;;;4.15;2.10;;;16.30;61.30;;;;;;4994148;28;20158;-72
2022/04/05 11:00:01;;;;;;;6.18;2.42;;;16.40;60.30;;;;;;4992871;28;20610;-73
2022/04/05 11:02:33;;;;;;;6.97;3.13;;;16.60;62.70;;;;;;5007638;28;20022;-74
2022/04/05 11:05:19;;;;;;;7.75;3.30;;;16.60;61.00;;;;;;5009253;28;20038;-68
2022/04/05 11:07:54;;;;;;;6.93;3.70;;;16.30;60.80;;;;;;5008705;28;20448;-70
2022/04/05 11:10:33;;;;;;;8.10;2.78;;;16.30;60.30;;;;;;5003399;28;20551;-73
2022/04/05 11:13:06;;;;;;;4.20;2.10;;;16.20;60.80;;;;;;5007782;28;20149;-72
2022/04/05 11:15:47;;;;;;;5.00;2.63;;;16.10;59.10;;;;;;5009170;28;20025;-72
2022/04/05 11:18:16;;;;;;;6.00;2.85;;;16.20;58.20;;;;;;5008565;28;20049;-68
2022/04/05 11:20:44;;;;;;;9.50;3.45;;;16.10;58.40;;;;;;5006662;28;20025;-69
2022/04/05 11:23:17;;;;;;;11.13;4.63;;;16.10;58.30;;;;;;5004870;28;20092;-70
2022/04/05 11:25:44;;;;;;;4.03;2.20;;;16.20;60.60;;;;;;5008076;28;20045;-72
2022/04/05 11:28:21;;;;;;;2.30;1.73;;;16.40;59.00;;;;;;5008742;28;20514;-75
2022/04/05 11:31:04;;;;;;;2.65;1.95;;;16.50;61.30;;;;;;5007044;28;20042;-75
2022/04/05 11:33:32;;;;;;;;;;;16.30;56.20;;;;;;5000535;28;20460;-73
2022/04/05 11:36:02;;;;;;;4.07;2.78;;;16.60;61.70;;;;;;5010357;28;20386;-73
2022/04/05 11:38:43;;;;;;;5.32;2.22;;;16.70;59.10;;;;;;5007921;28;20038;-73
2022/04/05 11:41:19;;;;;;;4.18;1.88;;;16.80;61.90;;;;;;5009287;28;20080;-72
2022/04/05 11:43:50;;;;;;;3.35;1.95;;;17.00;58.80;;;;;;5026169;28;20567;-73
2022/04/05 11:46:22;;;;;;;4.15;2.08;;;17.10;60.80;;;;;;5016614;28;20092;-73
2022/04/05 11:48:51;;;;;;;2.17;1.92;;;17.00;58.70;;;;;;5012267;28;20093;-72
2022/04/05 11:51:20;;;;;;;2.80;1.85;;;17.00;58.00;;;;;;5010850;28;20030;-72
2022/04/05 11:53:47;;;;;;;4.50;2.10;;;17.20;57.10;;;;;;5010882;28;20434;-72
2022/04/05 11:56:22;;;;;;;4.72;2.22;;;17.30;57.80;;;;;;5010877;28;20026;-72
2022/04/05 11:58:54;;;;;;;3.78;2.00;;;17.30;56.60;;;;;;5010086;28;20377;-74
2022/04/05 12:01:22;;;;;;;2.85;1.45;;;17.30;57.30;;;;;;5011341;28;20035;-72
2022/04/05 12:03:58;;;;;;;3.55;1.83;;;17.20;54.60;;;;;;5010938;28;20030;-72
2022/04/05 12:06:29;;;;;;;5.45;2.10;;;17.30;58.20;;;;;;5025665;28;20037;-72
2022/04/05 12:08:57;;;;;;;3.85;1.88;;;17.30;56.70;;;;;;5009374;28;20535;-73
2022/04/05 12:11:25;;;;;;;2.80;1.75;;;17.10;53.50;;;;;;5010737;28;20030;-72
2022/04/05 12:14:00;;;;;;;3.55;1.95;;;17.00;55.80;;;;;;5009194;28;20072;-73
2022/04/05 12:16:51;;;;;;;4.63;2.08;;;16.90;54.80;;;;;;5025801;28;20116;-73
2022/04/05 12:19:19;;;;;;;4.95;1.83;;;16.90;56.50;;;;;;4992919;28;20041;-72
2022/04/05 12:21:51;;;;;;;2.15;1.70;;;17.00;55.90;;;;;;5007495;28;20042;-73
2022/04/05 12:24:17;;;;;;;4.22;1.90;;;17.10;55.20;;;;;;5008261;28;20038;-72
2022/04/05 12:26:43;;;;;;;4.05;1.58;;;17.30;57.50;;;;;;5008248;28;20165;-73
2022/04/05 12:29:09;;;;;;;5.22;2.33;;;17.40;57.10;;;;;;5008110;28;20531;-71
2022/04/05 12:31:35;;;;;;;4.93;1.80;;;17.40;55.10;;;;;;5008253;28;20129;-73
2022/04/05 12:34:05;;;;;;;3.42;1.98;;;17.70;57.20;;;;;;5010749;28;20026;-73
2022/04/05 12:36:37;;;;;;;3.65;2.22;;;17.80;55.30;;;;;;5012117;28;20245;-73
2022/04/05 12:39:07;;;;;;;4.00;1.80;;;17.90;56.80;;;;;;5011819;28;20124;-72
2022/04/05 12:41:41;;;;;;;2.78;1.73;;;17.70;54.10;;;;;;4996635;28;20044;-73
2022/04/05 12:44:16;;;;;;;5.30;2.00;;;17.60;55.40;;;;;;4996087;28;20040;-73
2022/04/05 12:46:53;;;;;;;2.67;1.83;;;17.80;56.40;;;;;;4995922;28;20038;-73
2022/04/05 12:49:34;;;;;;;4.45;2.25;;;17.50;52.70;;;;;;4996646;28;20068;-72
2022/04/05 12:52:15;;;;;;;3.55;1.80;;;17.50;53.40;;;;;;4995433;28;20030;-73
2022/04/05 12:55:12;;;;;;;3.78;1.88;;;17.40;54.00;;;;;;5012732;28;20507;-73
2022/04/05 12:57:40;;;;;;;3.70;1.75;;;17.30;53.90;;;;;;4934449;28;20088;-73
2022/04/05 13:00:13;;;;;;;4.68;2.38;;;17.30;54.50;;;;;;4934064;29;20036;-75